createdAt,value
2018-04-07T00:01:38.031Z,64.80
2018-04-07T00:04:05.577Z,64.70
2018-04-07T00:06:33.059Z,64.80
2018-04-07T00:09:00.639Z,65.30
2018-04-07T00:11:29.312Z,64.70
2018-04-07T00:13:56.831Z,64.70
2018-04-07T00:16:24.314Z,65.10
2018-04-07T00:18:51.836Z,65.50
2018-04-07T00:21:19.338Z,66.50
2018-04-07T00:23:46.852Z,66.00
2018-04-07T00:26:14.336Z,65.50
2018-04-07T00:28:42.619Z,66.20
2018-04-07T00:31:10.883Z,67.50
2018-04-07T00:33:38.392Z,67.50
2018-04-07T00:36:06.676Z,70.00
2018-04-07T00:38:34.946Z,71.20
2018-04-07T00:41:02.472Z,71.20
2018-04-07T00:43:29.996Z,70.80
2018-04-07T00:45:57.475Z,71.00
2018-04-07T00:48:25.751Z,69.40
2018-04-07T00:50:53.262Z,69.30
2018-04-07T00:53:20.750Z,69.30
2018-04-07T00:55:48.262Z,69.70
2018-04-07T00:58:15.768Z,69.50
2018-04-07T01:00:44.062Z,69.50
2018-04-07T01:03:11.543Z,69.40
2018-04-07T01:05:39.052Z,69.10
2018-04-07T01:08:06.563Z,69.40
2018-04-07T01:10:34.079Z,69.70
2018-04-07T01:13:01.567Z,69.60
2018-04-07T01:15:29.085Z,69.70
2018-04-07T01:17:56.563Z,69.90
2018-04-07T01:20:24.076Z,69.80
2018-04-07T01:22:51.573Z,70.00
2018-04-07T01:25:19.083Z,70.30
2018-04-07T01:27:46.569Z,70.30
2018-04-07T01:30:14.074Z,70.30
2018-04-07T01:32:41.571Z,70.20
2018-04-07T01:35:09.811Z,70.10
2018-04-07T01:37:37.288Z,70.00
2018-04-07T01:40:04.935Z,70.10
2018-04-07T01:42:32.430Z,70.10
2018-04-07T01:44:59.923Z,70.60
2018-04-07T01:47:27.437Z,70.80
2018-04-07T01:49:54.924Z,70.80
2018-04-07T01:52:22.432Z,71.10
2018-04-07T01:54:49.912Z,71.10
2018-04-07T01:57:17.463Z,71.30
2018-04-07T01:59:44.934Z,71.60
2018-04-07T02:02:12.447Z,71.90
2018-04-07T02:04:40.731Z,71.90
2018-04-07T02:07:09.023Z,72.80
2018-04-07T02:09:37.270Z,72.70
2018-04-07T02:12:04.784Z,72.70
2018-04-07T02:14:32.271Z,73.20
2018-04-07T02:16:59.791Z,73.50
2018-04-07T02:19:27.268Z,74.10
2018-04-07T02:21:54.819Z,74.10
2018-04-07T02:24:22.299Z,73.90
2018-04-07T02:26:49.805Z,73.80
2018-04-07T02:29:17.272Z,73.70
2018-04-07T02:31:45.563Z,73.70
2018-04-07T02:34:13.809Z,73.50
2018-04-07T02:36:41.300Z,73.50
2018-04-07T02:39:08.827Z,73.70
2018-04-07T02:41:36.307Z,73.60
2018-04-07T02:44:03.823Z,73.60
2018-04-07T02:46:31.305Z,74.10
2018-04-07T02:48:59.587Z,74.80
2018-04-07T02:51:27.071Z,74.80
2018-04-07T02:53:55.349Z,75.00
2018-04-07T02:56:22.827Z,75.00
2018-04-07T02:58:51.116Z,75.40
2018-04-07T03:01:19.356Z,76.10
2018-04-07T03:03:46.900Z,75.30
2018-04-07T03:06:14.344Z,75.30
2018-04-07T03:08:41.863Z,75.50
2018-04-07T03:11:09.355Z,75.20
2018-04-07T03:13:37.447Z,75.60
2018-04-07T03:16:04.922Z,75.40
2018-04-07T03:18:32.462Z,75.90
2018-04-07T03:20:59.940Z,76.00
2018-04-07T03:23:27.418Z,75.90
2018-04-07T03:25:54.954Z,76.00
2018-04-07T03:28:22.418Z,76.30
2018-04-07T03:30:49.928Z,76.50
2018-04-07T03:33:17.405Z,76.20
2018-04-07T03:35:44.928Z,76.60
2018-04-07T03:38:13.168Z,76.00
2018-04-07T03:40:40.681Z,76.10
2018-04-07T03:43:08.928Z,75.90
2018-04-07T03:45:36.464Z,75.90
2018-04-07T03:48:03.945Z,76.10
2018-04-07T03:50:31.462Z,76.40
2018-04-07T03:52:59.733Z,78.10
2018-04-07T03:55:27.268Z,77.40
2018-04-07T03:57:54.751Z,77.10
2018-04-07T04:00:22.284Z,76.80
2018-04-07T04:02:50.532Z,77.30
2018-04-07T04:05:18.040Z,77.30
2018-04-07T04:07:46.282Z,77.00
2018-04-07T04:10:13.797Z,77.00
2018-04-07T04:12:42.044Z,77.50
2018-04-07T04:15:09.576Z,77.50
2018-04-07T04:17:37.052Z,77.50
2018-04-07T04:20:04.527Z,77.60
2018-04-07T04:22:32.035Z,77.80
2018-04-07T04:24:59.511Z,78.00
2018-04-07T04:27:27.050Z,77.90
2018-04-07T04:29:54.534Z,77.80
2018-04-07T04:32:22.045Z,78.20
2018-04-07T04:34:50.299Z,79.10
2018-04-07T04:37:17.811Z,78.40
2018-04-07T04:39:46.054Z,78.60
2018-04-07T04:42:13.555Z,78.60
2018-04-07T04:44:41.037Z,78.60
2018-04-07T04:47:08.545Z,78.60
2018-04-07T04:49:36.016Z,79.10
2018-04-07T04:52:03.536Z,79.00
2018-04-07T04:54:31.019Z,79.60
2018-04-07T04:56:58.535Z,79.70
2018-04-07T04:59:26.062Z,80.20
2018-04-07T05:01:53.567Z,81.40
2018-04-07T05:04:21.047Z,81.90
2018-04-07T05:06:48.530Z,82.70
2018-04-07T05:09:16.039Z,83.10
2018-04-07T05:11:43.526Z,82.60
2018-04-07T05:14:11.091Z,82.30
2018-04-07T05:16:38.573Z,82.10
2018-04-07T05:19:06.084Z,82.10
2018-04-07T05:21:33.566Z,81.20
2018-04-07T05:24:01.075Z,80.60
2018-04-07T05:26:28.544Z,80.30
2018-04-07T05:28:56.845Z,79.80
2018-04-07T05:31:25.154Z,79.60
2018-04-07T05:33:52.656Z,79.60
2018-04-07T05:36:20.130Z,79.30
2018-04-07T05:38:47.642Z,79.50
2018-04-07T05:41:15.892Z,78.50
2018-04-07T05:43:43.395Z,78.40
2018-04-07T05:46:10.875Z,78.30
2018-04-07T05:48:39.219Z,78.00
2018-04-07T05:51:06.694Z,77.80
2018-04-07T05:53:34.199Z,78.30
2018-04-07T05:56:01.673Z,78.10
2018-04-07T05:58:29.960Z,77.60
2018-04-07T06:00:57.429Z,77.60
2018-04-07T06:03:24.992Z,78.00
2018-04-07T06:05:52.512Z,76.80
2018-04-07T06:08:19.999Z,76.10
2018-04-07T06:10:48.275Z,75.70
2018-04-07T06:13:15.763Z,75.70
2018-04-07T06:15:43.276Z,75.70
2018-04-07T06:18:11.522Z,74.50
2018-04-07T06:20:39.030Z,74.50
2018-04-07T06:23:06.511Z,74.10
2018-04-07T06:25:34.787Z,73.50
2018-04-07T06:28:02.280Z,73.50
2018-04-07T06:30:29.823Z,72.20
2018-04-07T06:32:57.319Z,71.70
2018-04-07T06:35:25.564Z,70.70
2018-04-07T06:37:53.103Z,70.80
2018-04-07T06:40:20.619Z,70.20
2018-04-07T06:42:48.099Z,69.90
2018-04-07T06:45:15.619Z,68.70
2018-04-07T06:47:43.107Z,68.40
2018-04-07T06:50:10.630Z,67.80
2018-04-07T06:52:38.883Z,56.10
2018-04-07T06:55:06.436Z,55.50
2018-04-07T06:57:34.658Z,44.70
2018-04-07T07:00:02.175Z,44.70
2018-04-07T07:02:29.676Z,41.00
2018-04-07T07:04:57.158Z,39.40
2018-04-07T07:07:24.692Z,38.00
2018-04-07T07:09:52.167Z,35.40
2018-04-07T07:12:19.682Z,36.00
2018-04-07T07:14:47.168Z,35.80
2018-04-07T07:17:14.683Z,35.50
2018-04-07T07:19:42.170Z,35.60
2018-04-07T07:22:09.717Z,34.90
2018-04-07T07:24:37.204Z,34.40
2018-04-07T07:27:04.727Z,34.80
2018-04-07T07:29:32.221Z,34.20
2018-04-07T07:32:00.500Z,33.00
2018-04-07T07:34:27.984Z,33.10
2018-04-07T07:36:55.500Z,33.10
2018-04-07T07:39:23.003Z,31.60
2018-04-07T07:41:50.519Z,31.70
2018-04-07T07:44:18.001Z,31.70
2018-04-07T07:46:45.570Z,32.40
2018-04-07T07:49:13.789Z,32.40
2018-04-07T07:51:41.306Z,32.40
2018-04-07T07:54:08.838Z,32.90
2018-04-07T07:56:36.322Z,32.00
2018-04-07T07:59:03.839Z,32.20
2018-04-07T08:01:31.321Z,31.00
2018-04-07T08:03:58.847Z,30.70
2018-04-07T08:06:26.331Z,32.60
2018-04-07T08:08:53.851Z,32.60
2018-04-07T08:11:21.343Z,32.40
2018-04-07T08:13:48.864Z,31.60
2018-04-07T08:16:16.350Z,30.70
2018-04-07T08:18:43.867Z,31.40
2018-04-07T08:21:12.119Z,29.50
2018-04-07T08:23:39.655Z,29.50
2018-04-07T08:26:07.169Z,28.70
2018-04-07T08:28:34.764Z,27.60
2018-04-07T08:31:03.027Z,28.60
2018-04-07T08:33:30.509Z,28.30
2018-04-07T08:35:58.038Z,28.00
2018-04-07T08:38:25.599Z,28.20
2018-04-07T08:40:53.139Z,28.90
2018-04-07T08:43:21.433Z,27.10
2018-04-07T08:45:48.951Z,27.10
2018-04-07T08:48:17.308Z,26.30
2018-04-07T08:50:45.591Z,27.30
2018-04-07T08:53:13.159Z,27.30
2018-04-07T08:55:41.516Z,27.40
2018-04-07T08:58:09.003Z,27.30
2018-04-07T09:00:36.523Z,26.70
2018-04-07T09:03:04.022Z,26.90
2018-04-07T09:05:31.609Z,25.90
2018-04-07T09:07:59.108Z,25.80
2018-04-07T09:10:26.629Z,25.10
2018-04-07T09:13:05.993Z,24.90
2018-04-07T09:15:34.049Z,25.10
2018-04-07T09:18:01.557Z,25.80
2018-04-07T09:20:29.115Z,26.10
2018-04-07T09:22:56.597Z,27.10
2018-04-07T09:25:24.117Z,26.70
2018-04-07T09:27:52.387Z,25.60
2018-04-07T09:30:19.871Z,25.60
2018-04-07T09:32:48.156Z,26.40
2018-04-07T09:35:16.395Z,26.30
2018-04-07T09:37:43.926Z,26.30
2018-04-07T09:40:11.427Z,26.70
2018-04-07T09:42:38.946Z,26.30
2018-04-07T09:45:06.455Z,25.60
2018-04-07T09:47:33.995Z,26.70
2018-04-07T09:50:01.484Z,26.10
2018-04-07T09:52:29.773Z,26.30
2018-04-07T09:54:58.031Z,26.40
2018-04-07T09:57:25.559Z,26.30
2018-04-07T09:59:53.053Z,27.30
2018-04-07T10:02:20.582Z,26.70
2018-04-07T10:04:48.099Z,26.60
2018-04-07T10:07:15.629Z,27.10
2018-04-07T10:09:43.136Z,26.40
2018-04-07T10:12:10.694Z,25.90
2018-04-07T10:14:38.178Z,26.10
2018-04-07T10:17:05.707Z,25.50
2018-04-07T10:19:33.189Z,26.10
2018-04-07T10:22:00.675Z,25.60
2018-04-07T10:24:28.196Z,26.20
2018-04-07T10:26:55.694Z,26.30
2018-04-07T10:29:23.974Z,25.20
2018-04-07T10:31:52.228Z,25.70
2018-04-07T10:34:19.751Z,25.70
2018-04-07T10:36:48.013Z,25.50
2018-04-07T10:39:15.589Z,25.50
2018-04-07T10:41:43.095Z,25.00
2018-04-07T10:44:10.623Z,25.40
2018-04-07T10:46:38.124Z,26.70
2018-04-07T10:49:05.644Z,27.00
2018-04-07T10:51:33.130Z,27.00
2018-04-07T10:54:00.663Z,26.50
2018-04-07T10:56:28.162Z,27.30
2018-04-07T10:58:55.730Z,27.50
2018-04-07T11:01:23.219Z,27.80
2018-04-07T11:03:50.702Z,27.90
2018-04-07T11:06:19.095Z,30.10
2018-04-07T11:08:47.359Z,30.20
2018-04-07T11:11:18.729Z,30.10
2018-04-07T11:13:50.244Z,30.50
2018-04-07T11:16:18.064Z,31.40
2018-04-07T11:18:45.551Z,31.20
2018-04-07T11:21:18.052Z,30.90
2018-04-07T11:23:45.898Z,31.80
2018-04-07T11:26:13.428Z,31.30
2018-04-07T11:28:42.171Z,31.60
2018-04-07T11:31:09.699Z,32.10
2018-04-07T11:33:37.622Z,31.40
2018-04-07T11:36:05.135Z,31.50
2018-04-07T11:38:33.383Z,32.10
2018-04-07T11:41:00.911Z,32.10
2018-04-07T11:43:28.388Z,32.60
2018-04-07T11:45:55.956Z,32.10
2018-04-07T11:48:23.442Z,31.90
2018-04-07T11:50:50.955Z,32.30
2018-04-07T11:53:18.483Z,32.60
2018-04-07T11:55:45.983Z,32.20
2018-04-07T11:58:13.500Z,33.30
2018-04-07T12:00:41.760Z,32.40
2018-04-07T12:03:09.286Z,32.40
2018-04-07T12:05:36.814Z,32.70
2018-04-07T12:08:05.126Z,33.00
2018-04-07T12:10:32.623Z,32.90
2018-04-07T12:13:01.799Z,32.70
2018-04-07T12:15:29.295Z,32.60
2018-04-07T12:17:56.828Z,33.00
2018-04-07T12:20:24.308Z,33.10
2018-04-07T12:22:52.607Z,33.10
2018-04-07T12:25:20.861Z,33.10
2018-04-07T12:27:48.373Z,33.10
2018-04-07T12:30:15.928Z,33.30
2018-04-07T12:32:44.197Z,33.50
2018-04-07T12:35:11.719Z,33.60
2018-04-07T12:37:39.271Z,33.50
2018-04-07T12:40:06.756Z,33.50
2018-04-07T12:42:34.303Z,33.20
2018-04-07T12:45:02.576Z,33.80
2018-04-07T12:47:30.067Z,33.70
2018-04-07T12:49:58.351Z,33.60
2018-04-07T12:52:25.835Z,34.30
2018-04-07T12:54:54.119Z,32.90
2018-04-07T12:57:22.376Z,33.10
2018-04-07T12:59:49.928Z,33.00
2018-04-07T13:02:17.423Z,33.00
2018-04-07T13:04:44.962Z,33.10
2018-04-07T13:07:12.450Z,33.50
2018-04-07T13:09:39.971Z,32.70
2018-04-07T13:12:08.262Z,32.30
2018-04-07T13:14:36.551Z,32.60
2018-04-07T13:17:04.811Z,31.20
2018-04-07T13:19:32.331Z,31.10
2018-04-07T13:21:59.833Z,32.00
2018-04-07T13:24:27.356Z,31.60
2018-04-07T13:26:55.598Z,31.30
2018-04-07T13:29:23.105Z,31.30
2018-04-07T13:31:51.394Z,31.00
2018-04-07T13:34:18.911Z,30.90
2018-04-07T13:36:46.395Z,30.60
2018-04-07T13:39:13.920Z,31.10
2018-04-07T13:41:42.184Z,30.70
2018-04-07T13:44:09.706Z,30.70
2018-04-07T13:46:37.235Z,30.00
2018-04-07T13:49:04.763Z,30.20
2018-04-07T13:51:32.282Z,30.00
2018-04-07T13:53:59.766Z,30.20
2018-04-07T13:56:27.289Z,30.50
2018-04-07T13:58:54.829Z,29.70
2018-04-07T14:01:22.428Z,30.70
2018-04-07T14:03:49.931Z,29.90
2018-04-07T14:06:17.446Z,29.90
2018-04-07T14:08:44.928Z,29.30
2018-04-07T14:11:12.478Z,29.50
2018-04-07T14:13:39.981Z,29.40
2018-04-07T14:16:07.515Z,29.60
2018-04-07T14:18:35.030Z,29.00
2018-04-07T14:21:02.571Z,29.20
2018-04-07T14:23:30.062Z,29.00
2018-04-07T14:25:57.547Z,29.10
2018-04-07T14:28:25.199Z,29.10
2018-04-07T14:30:52.686Z,29.40
2018-04-07T14:33:20.170Z,28.80
2018-04-07T14:35:47.690Z,29.30
2018-04-07T14:38:15.223Z,29.40
2018-04-07T14:40:42.699Z,29.10
2018-04-07T14:43:10.232Z,28.60
2018-04-07T14:45:37.755Z,29.30
2018-04-07T14:48:05.271Z,29.10
2018-04-07T14:50:32.760Z,29.60
2018-04-07T14:53:00.299Z,29.40
2018-04-07T14:55:27.789Z,29.40
2018-04-07T14:57:55.315Z,29.00
2018-04-07T15:00:23.587Z,29.70
2018-04-07T15:02:51.116Z,29.60
2018-04-07T15:05:18.607Z,29.60
2018-04-07T15:07:46.154Z,29.70
2018-04-07T15:10:14.399Z,30.70
2018-04-07T15:12:41.891Z,30.50
2018-04-07T15:15:10.183Z,30.40
2018-04-07T15:17:37.689Z,31.00
2018-04-07T15:20:05.294Z,30.70
2018-04-07T15:22:32.807Z,30.00
2018-04-07T15:25:00.323Z,30.50
2018-04-07T15:27:27.804Z,30.00
2018-04-07T15:29:55.315Z,30.80
2018-04-07T15:32:22.798Z,30.50
2018-04-07T15:34:50.291Z,30.20
2018-04-07T15:37:17.845Z,30.40
2018-04-07T15:39:45.371Z,31.00
2018-04-07T15:42:12.848Z,30.60
2018-04-07T15:44:40.375Z,31.00
2018-04-07T15:47:07.940Z,30.70
2018-04-07T15:49:35.427Z,30.90
2018-04-07T15:52:02.944Z,30.40
2018-04-07T15:54:31.193Z,31.10
2018-04-07T15:56:58.719Z,31.00
2018-04-07T15:59:26.213Z,31.70
2018-04-07T16:01:53.726Z,31.40
2018-04-07T16:04:21.250Z,31.00
2018-04-07T16:06:48.832Z,31.80
2018-04-07T16:09:16.547Z,31.00
2018-04-07T16:11:44.164Z,30.70
2018-04-07T16:14:11.671Z,30.90
2018-04-07T16:16:39.227Z,31.50
2018-04-07T16:19:06.716Z,31.40
2018-04-07T16:21:34.840Z,31.50
2018-04-07T16:24:02.330Z,31.20
2018-04-07T16:26:29.900Z,31.10
2018-04-07T16:28:58.176Z,31.70
2018-04-07T16:31:26.467Z,31.40
2018-04-07T16:33:54.715Z,31.70
2018-04-07T16:36:22.228Z,31.60
2018-04-07T16:38:50.467Z,31.90
2018-04-07T16:41:17.983Z,31.90
2018-04-07T16:43:46.232Z,31.80
2018-04-07T16:46:13.759Z,31.80
2018-04-07T16:48:42.012Z,31.40
2018-04-07T16:51:09.535Z,31.40
2018-04-07T16:53:37.111Z,31.60
2018-04-07T16:56:04.598Z,32.00
2018-04-07T16:58:32.114Z,31.50
2018-04-07T17:00:59.617Z,32.20
2018-04-07T17:03:27.144Z,32.40
2018-04-07T17:05:54.649Z,32.30
2018-04-07T17:08:22.164Z,32.20
2018-04-07T17:10:49.648Z,32.90
2018-04-07T17:13:17.173Z,32.90
2018-04-07T17:15:44.668Z,32.80
2018-04-07T17:18:12.213Z,33.10
2018-04-07T17:20:40.455Z,33.70
2018-04-07T17:23:07.988Z,33.80
2018-04-07T17:25:35.499Z,34.80
2018-04-07T17:28:03.012Z,34.40
2018-04-07T17:30:30.511Z,35.00
2018-04-07T17:32:58.003Z,34.60
2018-04-07T17:35:25.542Z,35.20
2018-04-07T17:37:53.028Z,35.20
2018-04-07T17:40:20.551Z,35.00
2018-04-07T17:42:48.798Z,35.70
2018-04-07T17:45:16.332Z,35.70
2018-04-07T17:47:43.823Z,36.10
2018-04-07T17:50:11.333Z,36.00
2018-04-07T17:52:38.812Z,36.40
2018-04-07T17:55:06.336Z,36.60
2018-04-07T17:57:33.819Z,36.50
2018-04-07T18:00:01.336Z,36.80
2018-04-07T18:02:28.836Z,37.00
2018-04-07T18:04:56.352Z,37.60
2018-04-07T18:07:23.830Z,37.80
2018-04-07T18:09:51.344Z,38.30
2018-04-07T18:12:18.827Z,38.90
2018-04-07T18:14:46.344Z,39.40
2018-04-07T18:17:13.824Z,39.90
2018-04-07T18:19:41.363Z,39.90
2018-04-07T18:22:08.843Z,40.10
2018-04-07T18:24:36.372Z,40.40
2018-04-07T18:27:03.887Z,40.60
2018-04-07T18:29:31.394Z,40.40
2018-04-07T18:31:59.672Z,42.30
2018-04-07T18:34:27.160Z,41.70
2018-04-07T18:36:55.436Z,42.60
2018-04-07T18:39:22.920Z,42.60
2018-04-07T18:41:51.212Z,43.80
2018-04-07T18:44:19.461Z,44.10
2018-04-07T18:46:47.013Z,44.20
2018-04-07T18:49:15.262Z,45.00
2018-04-07T18:51:42.830Z,45.00
2018-04-07T18:54:11.070Z,46.10
2018-04-07T18:56:38.619Z,46.10
2018-04-07T18:59:06.135Z,46.60
2018-04-07T19:01:33.655Z,47.10
2018-04-07T19:04:01.136Z,47.60
2018-04-07T19:06:28.711Z,48.10
2018-04-07T19:08:56.198Z,48.20
2018-04-07T19:11:23.683Z,48.40
2018-04-07T19:13:51.199Z,48.80
2018-04-07T19:16:19.454Z,49.40
2018-04-07T19:18:47.011Z,49.40
2018-04-07T19:21:14.502Z,49.80
2018-04-07T19:23:42.016Z,50.00
2018-04-07T19:26:09.515Z,50.20
2018-04-07T19:28:37.065Z,50.60
2018-04-07T19:31:04.572Z,51.00
2018-04-07T19:33:32.111Z,51.50
2018-04-07T19:35:59.626Z,51.70
2018-04-07T19:38:27.156Z,51.70
2018-04-07T19:40:54.656Z,51.70
2018-04-07T19:43:22.196Z,52.20
2018-04-07T19:45:49.720Z,52.20
2018-04-07T19:48:17.237Z,52.80
2018-04-07T19:50:44.720Z,53.10
2018-04-07T19:53:13.008Z,54.00
2018-04-07T19:55:40.507Z,54.00
2018-04-07T19:58:08.030Z,54.30
2018-04-07T20:00:35.551Z,54.50
2018-04-07T20:03:03.048Z,54.90
2018-04-07T20:05:31.326Z,55.60
2018-04-07T20:07:58.886Z,55.30
2018-04-07T20:10:26.416Z,55.60
2018-04-07T20:12:53.919Z,55.60
2018-04-07T20:15:21.429Z,55.80
2018-04-07T20:17:49.699Z,56.70
2018-04-07T20:20:17.243Z,56.70
2018-04-07T20:22:44.742Z,56.90
2018-04-07T20:25:12.263Z,57.50
2018-04-07T20:27:39.747Z,57.80
2018-04-07T20:30:07.274Z,57.80
2018-04-07T20:32:35.523Z,58.50
2018-04-07T20:35:03.024Z,58.50
2018-04-07T20:37:30.539Z,59.00
2018-04-07T20:39:58.066Z,59.60
2018-04-07T20:42:27.040Z,60.10
2018-04-07T20:44:54.554Z,60.80
2018-04-07T20:47:23.679Z,61.70
2018-04-07T20:49:51.952Z,62.10
2018-04-07T20:52:20.237Z,63.00
2018-04-07T20:54:47.767Z,62.80
2018-04-07T20:57:15.293Z,63.80
2018-04-07T20:59:42.826Z,63.90
2018-04-07T21:02:10.354Z,64.30
2018-04-07T21:04:37.907Z,64.70
2018-04-07T21:07:05.419Z,64.90
2018-04-07T21:09:32.903Z,65.70
2018-04-07T21:12:00.431Z,67.30
2018-04-07T21:14:28.674Z,68.40
2018-04-07T21:16:56.186Z,68.40
2018-04-07T21:19:24.435Z,69.80
2018-04-07T21:21:51.964Z,69.80
2018-04-07T21:24:19.456Z,69.40
2018-04-07T21:26:46.983Z,69.40
2018-04-07T21:29:15.245Z,69.30
2018-04-07T21:31:42.732Z,69.30
2018-04-07T21:34:10.274Z,69.60
2018-04-07T21:36:37.862Z,69.50
2018-04-07T21:39:06.213Z,70.00
2018-04-07T21:41:33.700Z,69.70
2018-04-07T21:44:01.241Z,69.80
2018-04-07T21:46:28.723Z,70.20
2018-04-07T21:48:56.238Z,70.50
2018-04-07T21:51:23.732Z,70.30
2018-04-07T21:53:52.019Z,69.60
2018-04-07T21:56:20.307Z,69.90
2018-04-07T21:58:48.606Z,70.10
2018-04-07T22:01:16.858Z,70.60
2018-04-07T22:03:44.371Z,70.60
2018-04-07T22:06:22.843Z,71.40
2018-04-07T22:08:50.363Z,71.40
2018-04-07T22:11:17.907Z,71.70
2018-04-07T22:13:45.396Z,72.70
2018-04-07T22:16:12.880Z,72.60
2018-04-07T22:18:41.135Z,73.00
2018-04-07T22:21:08.658Z,73.10
2018-04-07T22:23:36.151Z,73.50
2018-04-07T22:26:03.668Z,73.60
2018-04-07T22:28:31.176Z,73.70
2018-04-07T22:30:58.680Z,74.60
2018-04-07T22:33:26.172Z,75.20
2018-04-07T22:35:53.693Z,74.60
2018-04-07T22:38:21.938Z,74.60
2018-04-07T22:40:49.454Z,74.60
2018-04-07T22:43:16.947Z,74.70
2018-04-07T22:45:44.469Z,75.00
2018-04-07T22:48:12.730Z,75.60
2018-04-07T22:50:40.261Z,75.60
2018-04-07T22:53:07.755Z,75.80
2018-04-07T22:55:35.314Z,76.10
2018-04-07T22:58:02.814Z,75.90
2018-04-07T23:00:30.298Z,76.10
2018-04-07T23:02:58.587Z,77.10
2018-04-07T23:05:26.090Z,76.30
2018-04-07T23:07:53.614Z,76.90
2018-04-07T23:10:21.099Z,77.00
2018-04-07T23:12:48.625Z,77.50
2018-04-07T23:15:16.108Z,78.60
2018-04-07T23:17:43.634Z,78.00
2018-04-07T23:20:11.878Z,78.90
2018-04-07T23:22:39.402Z,78.90
2018-04-07T23:25:06.949Z,78.90
2018-04-07T23:27:34.435Z,78.90
2018-04-07T23:30:01.920Z,78.70
2018-04-07T23:32:29.437Z,78.90
2018-04-07T23:34:56.947Z,78.80
2018-04-07T23:37:25.239Z,79.10
2018-04-07T23:39:53.491Z,78.80
2018-04-07T23:42:21.008Z,78.70
2018-04-07T23:44:48.492Z,78.30
2018-04-07T23:47:16.018Z,78.80
2018-04-07T23:49:43.506Z,79.00
2018-04-07T23:52:11.759Z,79.20
2018-04-07T23:54:39.290Z,79.10
2018-04-07T23:57:06.778Z,78.90
2018-04-07T23:59:34.308Z,79.00
